sensor_id;sensor_type;location;lat;lon;timestamp;pressure;altitude;pressure_sealevel;temperature;humidity
6393;BME280;3229;42.674;23.282;2022-12-18T00:00:14;95377.72;;;12.54;79.52
6393;BME280;3229;42.674;23.282;2022-12-18T00:02:41;95355.69;;;12.42;79.32
6393;BME280;3229;42.674;23.282;2022-12-18T00:05:08;95378.25;;;12.48;79.32
6393;BME280;3229;42.674;23.282;2022-12-18T00:07:35;95377.47;;;12.48;79.52
6393;BME280;3229;42.674;23.282;2022-12-18T00:10:03;95372.97;;;12.40;79.36
6393;BME280;3229;42.674;23.282;2022-12-18T00:12:30;95381.47;;;12.41;79.23
6393;BME280;3229;42.674;23.282;2022-12-18T00:14:56;95371.22;;;12.31;79.22
6393;BME280;3229;42.674;23.282;2022-12-18T00:17:25;95384.44;;;12.36;79.16
6393;BME280;3229;42.674;23.282;2022-12-18T00:19:51;95356.31;;;12.15;78.96
6393;BME280;3229;42.674;23.282;2022-12-18T00:22:18;95397.53;;;12.33;79.03
6393;BME280;3229;42.674;23.282;2022-12-18T00:24:45;95390.91;;;12.30;78.92
6393;BME280;3229;42.674;23.282;2022-12-18T00:27:12;95398.72;;;12.29;79.04
6393;BME280;3229;42.674;23.282;2022-12-18T00:29:39;95398.88;;;12.27;79.06
6393;BME280;3229;42.674;23.282;2022-12-18T00:32:05;95405.06;;;12.25;79.01
6393;BME280;3229;42.674;23.282;2022-12-18T00:34:34;95411.13;;;12.24;78.82
6393;BME280;3229;42.674;23.282;2022-12-18T00:37:00;95402.78;;;12.22;78.97
6393;BME280;3229;42.674;23.282;2022-12-18T00:39:27;95413.13;;;12.20;78.97
6393;BME280;3229;42.674;23.282;2022-12-18T00:41:54;95407.34;;;12.18;78.74
6393;BME280;3229;42.674;23.282;2022-12-18T00:44:38;95412.56;;;12.17;78.49
6393;BME280;3229;42.674;23.282;2022-12-18T00:47:05;95411.91;;;12.15;78.90
6393;BME280;3229;42.674;23.282;2022-12-18T00:49:33;95415.53;;;12.12;78.80
6393;BME280;3229;42.674;23.282;2022-12-18T00:52:00;95413.91;;;12.11;78.71
6393;BME280;3229;42.674;23.282;2022-12-18T00:54:27;95409.44;;;12.03;78.66
6393;BME280;3229;42.674;23.282;2022-12-18T00:56:54;95426.19;;;12.08;78.73
6393;BME280;3229;42.674;23.282;2022-12-18T00:59:21;95433.06;;;12.07;78.59
6393;BME280;3229;42.674;23.282;2022-12-18T01:01:48;95438.31;;;12.05;78.52
6393;BME280;3229;42.674;23.282;2022-12-18T01:04:15;95419.25;;;11.98;78.30
6393;BME280;3229;42.674;23.282;2022-12-18T01:06:43;95428.56;;;11.99;78.24
6393;BME280;3229;42.674;23.282;2022-12-18T01:09:10;95429.91;;;11.94;78.26
6393;BME280;3229;42.674;23.282;2022-12-18T01:11:36;95435.03;;;11.94;78.29
6393;BME280;3229;42.674;23.282;2022-12-18T01:14:03;95435.09;;;11.83;78.32
6393;BME280;3229;42.674;23.282;2022-12-18T01:16:30;95438.22;;;11.86;78.39
6393;BME280;3229;42.674;23.282;2022-12-18T01:18:57;95448.34;;;11.88;78.27
6393;BME280;3229;42.674;23.282;2022-12-18T01:21:24;95444.44;;;11.84;78.20
6393;BME280;3229;42.674;23.282;2022-12-18T01:23:54;95445.34;;;11.83;78.10
6393;BME280;3229;42.674;23.282;2022-12-18T01:26:21;95453.28;;;11.79;78.06
6393;BME280;3229;42.674;23.282;2022-12-18T01:28:48;95430.78;;;11.62;77.93
6393;BME280;3229;42.674;23.282;2022-12-18T01:31:17;95440.94;;;11.73;78.02
6393;BME280;3229;42.674;23.282;2022-12-18T01:33:44;95455.50;;;11.73;78.14
6393;BME280;3229;42.674;23.282;2022-12-18T01:36:16;95463.34;;;11.71;77.93
6393;BME280;3229;42.674;23.282;2022-12-18T01:38:43;95460.44;;;11.65;78.04
6393;BME280;3229;42.674;23.282;2022-12-18T01:41:11;95447.34;;;11.58;77.86
6393;BME280;3229;42.674;23.282;2022-12-18T01:43:46;95434.72;;;11.45;77.88
6393;BME280;3229;42.674;23.282;2022-12-18T01:46:14;95467.47;;;11.63;77.97
6393;BME280;3229;42.674;23.282;2022-12-18T01:48:41;95465.84;;;11.62;77.82
6393;BME280;3229;42.674;23.282;2022-12-18T01:51:10;95465.28;;;11.58;77.92
6393;BME280;3229;42.674;23.282;2022-12-18T01:53:39;95462.81;;;11.56;77.86
6393;BME280;3229;42.674;23.282;2022-12-18T01:56:07;95469.81;;;11.54;77.64
6393;BME280;3229;42.674;23.282;2022-12-18T01:58:41;95468.31;;;11.52;77.80
6393;BME280;3229;42.674;23.282;2022-12-18T02:01:10;95467.75;;;11.48;77.80
6393;BME280;3229;42.674;23.282;2022-12-18T02:03:37;95470.44;;;11.47;77.71
6393;BME280;3229;42.674;23.282;2022-12-18T02:06:09;95396.06;;;10.95;77.64
6393;BME280;3229;42.674;23.282;2022-12-18T02:08:42;95469.19;;;11.41;77.56
6393;BME280;3229;42.674;23.282;2022-12-18T02:11:17;95475.38;;;11.39;77.44
6393;BME280;3229;42.674;23.282;2022-12-18T02:13:53;95346.47;;;10.54;77.49
6393;BME280;3229;42.674;23.282;2022-12-18T02:16:29;95484.22;;;11.35;77.59
6393;BME280;3229;42.674;23.282;2022-12-18T02:19:03;95486.91;;;11.33;77.62
6393;BME280;3229;42.674;23.282;2022-12-18T02:21:36;95487.88;;;11.32;77.67
6393;BME280;3229;42.674;23.282;2022-12-18T02:24:17;95492.19;;;11.32;77.57
6393;BME280;3229;42.674;23.282;2022-12-18T02:26:48;95493.09;;;11.30;77.47
6393;BME280;3229;42.674;23.282;2022-12-18T02:29:19;95489.03;;;11.28;77.41
6393;BME280;3229;42.674;23.282;2022-12-18T02:31:51;95487.44;;;11.27;77.40
6393;BME280;3229;42.674;23.282;2022-12-18T02:34:21;95482.53;;;11.24;77.47
6393;BME280;3229;42.674;23.282;2022-12-18T02:36:50;95452.00;;;11.00;77.22
6393;BME280;3229;42.674;23.282;2022-12-18T02:39:20;95490.31;;;11.22;77.47
6393;BME280;3229;42.674;23.282;2022-12-18T02:41:50;95490.22;;;11.24;77.40
6393;BME280;3229;42.674;23.282;2022-12-18T02:44:17;95493.59;;;11.24;77.30
6393;BME280;3229;42.674;23.282;2022-12-18T02:46:46;95497.91;;;11.24;77.15
6393;BME280;3229;42.674;23.282;2022-12-18T02:49:25;95497.91;;;11.24;77.05
6393;BME280;3229;42.674;23.282;2022-12-18T02:51:55;95503.13;;;11.22;77.06
6393;BME280;3229;42.674;23.282;2022-12-18T02:54:37;95495.81;;;11.18;77.00
6393;BME280;3229;42.674;23.282;2022-12-18T02:57:13;95499.06;;;11.20;77.09
6393;BME280;3229;42.674;23.282;2022-12-18T02:59:47;95495.72;;;11.19;77.11
6393;BME280;3229;42.674;23.282;2022-12-18T03:02:21;95498.38;;;11.18;77.07
6393;BME280;3229;42.674;23.282;2022-12-18T03:04:55;95503.50;;;11.18;76.99
6393;BME280;3229;42.674;23.282;2022-12-18T03:07:33;95513.06;;;11.16;77.01
6393;BME280;3229;42.674;23.282;2022-12-18T03:10:02;95506.53;;;11.12;76.95
6393;BME280;3229;42.674;23.282;2022-12-18T03:12:33;95517.47;;;11.14;76.88
6393;BME280;3229;42.674;23.282;2022-12-18T03:15:04;95522.84;;;11.11;76.91
6393;BME280;3229;42.674;23.282;2022-12-18T03:17:35;95526.22;;;11.11;76.71
6393;BME280;3229;42.674;23.282;2022-12-18T03:20:07;95527.97;;;11.11;76.78
6393;BME280;3229;42.674;23.282;2022-12-18T03:22:37;95510.19;;;10.98;76.69
6393;BME280;3229;42.674;23.282;2022-12-18T03:25:07;95506.13;;;10.95;76.45
6393;BME280;3229;42.674;23.282;2022-12-18T03:27:40;95522.28;;;11.07;76.68
6393;BME280;3229;42.674;23.282;2022-12-18T03:30:12;95534.25;;;11.07;76.55
6393;BME280;3229;42.674;23.282;2022-12-18T03:32:42;95527.75;;;11.02;76.56
6393;BME280;3229;42.674;23.282;2022-12-18T03:35:13;95527.63;;;11.04;76.63
6393;BME280;3229;42.674;23.282;2022-12-18T03:37:40;95529.06;;;10.97;76.49
6393;BME280;3229;42.674;23.282;2022-12-18T03:40:08;95544.72;;;11.03;76.50
6393;BME280;3229;42.674;23.282;2022-12-18T03:42:45;95549.16;;;11.01;76.53
6393;BME280;3229;42.674;23.282;2022-12-18T03:45:20;95557.66;;;11.02;76.48
6393;BME280;3229;42.674;23.282;2022-12-18T03:47:57;95563.81;;;10.99;76.50
6393;BME280;3229;42.674;23.282;2022-12-18T03:50:33;95566.50;;;10.98;76.32
6393;BME280;3229;42.674;23.282;2022-12-18T03:53:09;95566.59;;;10.96;76.34
6393;BME280;3229;42.674;23.282;2022-12-18T03:55:38;95505.59;;;10.58;76.34
6393;BME280;3229;42.674;23.282;2022-12-18T03:58:08;95567.66;;;10.94;76.34
6393;BME280;3229;42.674;23.282;2022-12-18T04:00:38;95569.50;;;10.92;76.27
6393;BME280;3229;42.674;23.282;2022-12-18T04:03:05;95547.69;;;10.76;76.26
6393;BME280;3229;42.674;23.282;2022-12-18T04:05:34;95579.06;;;10.90;76.35
6393;BME280;3229;42.674;23.282;2022-12-18T04:08:02;95543.84;;;10.71;76.33
6393;BME280;3229;42.674;23.282;2022-12-18T04:10:30;95587.69;;;10.89;76.19
6393;BME280;3229;42.674;23.282;2022-12-18T04:12:57;95595.47;;;10.87;76.05
6393;BME280;3229;42.674;23.282;2022-12-18T04:15:25;95589.75;;;10.84;76.00
6393;BME280;3229;42.674;23.282;2022-12-18T04:17:52;95595.94;;;10.81;76.01
6393;BME280;3229;42.674;23.282;2022-12-18T04:20:19;95608.38;;;10.86;75.95
6393;BME280;3229;42.674;23.282;2022-12-18T04:22:46;95606.63;;;10.86;76.14
6393;BME280;3229;42.674;23.282;2022-12-18T04:25:13;95607.44;;;10.87;75.94
6393;BME280;3229;42.674;23.282;2022-12-18T04:27:39;95576.53;;;10.67;76.01
6393;BME280;3229;42.674;23.282;2022-12-18T04:30:07;95601.06;;;10.81;75.85
6393;BME280;3229;42.674;23.282;2022-12-18T04:32:36;95576.88;;;10.63;75.45
6393;BME280;3229;42.674;23.282;2022-12-18T04:35:03;95618.16;;;10.80;75.83
6393;BME280;3229;42.674;23.282;2022-12-18T04:37:32;95622.47;;;10.80;75.67
6393;BME280;3229;42.674;23.282;2022-12-18T04:39:59;95630.22;;;10.78;75.30
6393;BME280;3229;42.674;23.282;2022-12-18T04:42:25;95637.81;;;10.80;75.40
6393;BME280;3229;42.674;23.282;2022-12-18T04:44:52;95640.72;;;10.75;75.32
6393;BME280;3229;42.674;23.282;2022-12-18T04:47:19;95640.59;;;10.77;75.19
6393;BME280;3229;42.674;23.282;2022-12-18T04:49:47;95638.97;;;10.76;75.35
6393;BME280;3229;42.674;23.282;2022-12-18T04:52:14;95646.53;;;10.77;75.24
6393;BME280;3229;42.674;23.282;2022-12-18T04:54:40;95620.34;;;10.63;74.96
6393;BME280;3229;42.674;23.282;2022-12-18T04:57:07;95645.13;;;10.73;75.13
6393;BME280;3229;42.674;23.282;2022-12-18T04:59:34;95660.34;;;10.75;75.08
6393;BME280;3229;42.674;23.282;2022-12-18T05:02:01;95659.53;;;10.74;74.91
6393;BME280;3229;42.674;23.282;2022-12-18T05:04:28;95663.84;;;10.74;74.94
6393;BME280;3229;42.674;23.282;2022-12-18T05:06:56;95663.84;;;10.74;74.77
6393;BME280;3229;42.674;23.282;2022-12-18T05:09:23;95645.34;;;10.59;74.61
6393;BME280;3229;42.674;23.282;2022-12-18T05:11:50;95676.88;;;10.71;74.71
6393;BME280;3229;42.674;23.282;2022-12-18T05:14:16;95672.09;;;10.66;74.71
6393;BME280;3229;42.674;23.282;2022-12-18T05:16:43;95677.78;;;10.70;74.40
6393;BME280;3229;42.674;23.282;2022-12-18T05:19:10;95680.47;;;10.68;74.36
6393;BME280;3229;42.674;23.282;2022-12-18T05:21:37;95678.13;;;10.65;74.45
6393;BME280;3229;42.674;23.282;2022-12-18T05:24:06;95690.13;;;10.65;74.17
6393;BME280;3229;42.674;23.282;2022-12-18T05:26:33;95685.94;;;10.64;74.33
6393;BME280;3229;42.674;23.282;2022-12-18T05:28:59;95682.91;;;10.59;74.09
6393;BME280;3229;42.674;23.282;2022-12-18T05:31:26;95697.31;;;10.60;73.98
6393;BME280;3229;42.674;23.282;2022-12-18T05:33:53;95693.94;;;10.59;74.26
6393;BME280;3229;42.674;23.282;2022-12-18T05:36:20;95696.50;;;10.59;74.07
6393;BME280;3229;42.674;23.282;2022-12-18T05:38:47;95672.50;;;10.38;74.01
6393;BME280;3229;42.674;23.282;2022-12-18T05:41:15;95708.56;;;10.57;74.08
6393;BME280;3229;42.674;23.282;2022-12-18T05:43:42;95716.25;;;10.57;73.88
6393;BME280;3229;42.674;23.282;2022-12-18T05:46:12;95718.00;;;10.57;74.00
6393;BME280;3229;42.674;23.282;2022-12-18T05:48:39;95718.94;;;10.55;73.87
6393;BME280;3229;42.674;23.282;2022-12-18T05:51:08;95719.16;;;10.52;73.98
6393;BME280;3229;42.674;23.282;2022-12-18T05:53:36;95718.34;;;10.52;73.76
6393;BME280;3229;42.674;23.282;2022-12-18T05:56:04;95728.69;;;10.50;73.86
6393;BME280;3229;42.674;23.282;2022-12-18T05:58:33;95721.94;;;10.49;73.70
6393;BME280;3229;42.674;23.282;2022-12-18T06:01:08;95725.41;;;10.48;73.54
6393;BME280;3229;42.674;23.282;2022-12-18T06:03:36;95728.09;;;10.47;73.49
6393;BME280;3229;42.674;23.282;2022-12-18T06:06:03;95734.22;;;10.44;73.76
6393;BME280;3229;42.674;23.282;2022-12-18T06:08:29;95725.75;;;10.44;73.33
6393;BME280;3229;42.674;23.282;2022-12-18T06:10:56;95733.31;;;10.45;73.46
6393;BME280;3229;42.674;23.282;2022-12-18T06:13:23;95738.44;;;10.45;73.31
6393;BME280;3229;42.674;23.282;2022-12-18T06:15:51;95732.50;;;10.45;73.42
6393;BME280;3229;42.674;23.282;2022-12-18T06:18:18;95739.25;;;10.46;73.20
6393;BME280;3229;42.674;23.282;2022-12-18T06:20:45;95750.28;;;10.46;73.22
6393;BME280;3229;42.674;23.282;2022-12-18T06:23:11;95742.84;;;10.43;73.29
6393;BME280;3229;42.674;23.282;2022-12-18T06:25:39;95746.19;;;10.44;73.17
6393;BME280;3229;42.674;23.282;2022-12-18T06:28:06;95751.22;;;10.45;73.23
6393;BME280;3229;42.674;23.282;2022-12-18T06:30:32;95737.25;;;10.38;73.07
6393;BME280;3229;42.674;23.282;2022-12-18T06:33:01;95757.03;;;10.47;73.20
6393;BME280;3229;42.674;23.282;2022-12-18T06:35:27;95762.03;;;10.49;72.96
6393;BME280;3229;42.674;23.282;2022-12-18T06:37:54;95765.44;;;10.49;73.04
6393;BME280;3229;42.674;23.282;2022-12-18T06:40:21;95767.06;;;10.50;73.02
6393;BME280;3229;42.674;23.282;2022-12-18T06:42:48;95768.06;;;10.48;72.93
6393;BME280;3229;42.674;23.282;2022-12-18T06:45:15;95772.97;;;10.51;72.98
6393;BME280;3229;42.674;23.282;2022-12-18T06:47:41;95782.28;;;10.52;72.91
6393;BME280;3229;42.674;23.282;2022-12-18T06:50:10;95780.78;;;10.49;72.85
6393;BME280;3229;42.674;23.282;2022-12-18T06:52:37;95790.66;;;10.54;72.82
6393;BME280;3229;42.674;23.282;2022-12-18T06:55:05;95789.75;;;10.55;72.73
6393;BME280;3229;42.674;23.282;2022-12-18T06:57:36;95788.91;;;10.54;72.67
6393;BME280;3229;42.674;23.282;2022-12-18T07:00:04;95792.16;;;10.57;72.61
6393;BME280;3229;42.674;23.282;2022-12-18T07:02:31;95795.53;;;10.57;72.74
6393;BME280;3229;42.674;23.282;2022-12-18T07:04:58;95796.25;;;10.59;72.67
6393;BME280;3229;42.674;23.282;2022-12-18T07:07:26;95797.88;;;10.60;72.36
6393;BME280;3229;42.674;23.282;2022-12-18T07:09:53;95785.63;;;10.88;99.48
6393;BME280;3229;42.674;23.282;2022-12-18T07:12:20;95795.03;;;11.56;100.00
6393;BME280;3229;42.674;23.282;2022-12-18T07:14:46;95789.06;;;12.23;100.00
6393;BME280;3229;42.674;23.282;2022-12-18T07:17:13;95799.94;;;12.79;100.00
6393;BME280;3229;42.674;23.282;2022-12-18T07:19:40;95786.91;;;13.34;100.00
6393;BME280;3229;42.674;23.282;2022-12-18T07:22:07;95802.66;;;13.81;100.00
6393;BME280;3229;42.674;23.282;2022-12-18T07:24:36;95811.69;;;14.06;99.74
6393;BME280;3229;42.674;23.282;2022-12-18T07:27:02;95809.00;;;14.08;97.24
6393;BME280;3229;42.674;23.282;2022-12-18T07:29:29;95818.19;;;14.00;93.19
6393;BME280;3229;42.674;23.282;2022-12-18T07:31:56;95816.09;;;13.85;89.25
6393;BME280;3229;42.674;23.282;2022-12-18T07:34:23;95828.09;;;13.74;86.52
6393;BME280;3229;42.674;23.282;2022-12-18T07:36:50;95829.38;;;13.59;84.61
6393;BME280;3229;42.674;23.282;2022-12-18T07:39:17;95823.19;;;13.41;83.21
6393;BME280;3229;42.674;23.282;2022-12-18T07:41:45;95827.47;;;13.30;82.09
6393;BME280;3229;42.674;23.282;2022-12-18T07:44:32;95830.44;;;13.15;81.12
6393;BME280;3229;42.674;23.282;2022-12-18T07:46:59;95830.63;;;13.02;80.47
6393;BME280;3229;42.674;23.282;2022-12-18T07:49:25;95831.63;;;12.90;80.27
6393;BME280;3229;42.674;23.282;2022-12-18T07:51:53;95836.81;;;12.78;79.79
6393;BME280;3229;42.674;23.282;2022-12-18T07:54:21;95834.78;;;12.61;79.53
6393;BME280;3229;42.674;23.282;2022-12-18T07:56:50;95851.22;;;12.59;79.47
6393;BME280;3229;42.674;23.282;2022-12-18T07:59:17;95844.41;;;12.48;79.34
6393;BME280;3229;42.674;23.282;2022-12-18T08:01:44;95850.13;;;12.40;79.18
6393;BME280;3229;42.674;23.282;2022-12-18T08:04:11;95851.41;;;12.35;78.65
6393;BME280;3229;42.674;23.282;2022-12-18T08:06:37;95852.59;;;12.19;78.30
6393;BME280;3229;42.674;23.282;2022-12-18T08:09:04;95863.00;;;12.18;78.32
6393;BME280;3229;42.674;23.282;2022-12-18T08:11:32;95861.09;;;12.09;78.12
6393;BME280;3229;42.674;23.282;2022-12-18T08:14:00;95859.97;;;12.01;78.11
6393;BME280;3229;42.674;23.282;2022-12-18T08:16:27;95863.78;;;11.96;78.04
6393;BME280;3229;42.674;23.282;2022-12-18T08:18:54;95864.41;;;11.88;78.01
6393;BME280;3229;42.674;23.282;2022-12-18T08:21:22;95875.81;;;11.84;77.91
6393;BME280;3229;42.674;23.282;2022-12-18T08:23:49;95876.13;;;11.79;77.88
6393;BME280;3229;42.674;23.282;2022-12-18T08:26:17;95886.63;;;11.76;77.49
6393;BME280;3229;42.674;23.282;2022-12-18T08:28:44;95873.91;;;11.64;77.61
6393;BME280;3229;42.674;23.282;2022-12-18T08:31:12;95887.91;;;11.71;77.24
6393;BME280;3229;42.674;23.282;2022-12-18T08:33:40;95894.88;;;11.69;77.09
6393;BME280;3229;42.674;23.282;2022-12-18T08:36:08;95882.88;;;11.58;76.85
6393;BME280;3229;42.674;23.282;2022-12-18T08:38:36;95895.22;;;11.64;76.73
6393;BME280;3229;42.674;23.282;2022-12-18T08:41:04;95898.84;;;11.62;76.60
6393;BME280;3229;42.674;23.282;2022-12-18T08:43:31;95893.94;;;11.59;76.17
6393;BME280;3229;42.674;23.282;2022-12-18T08:46:17;95899.41;;;11.54;75.97
6393;BME280;3229;42.674;23.282;2022-12-18T08:48:44;95904.63;;;11.52;75.68
6393;BME280;3229;42.674;23.282;2022-12-18T08:51:11;95910.59;;;11.53;75.60
6393;BME280;3229;42.674;23.282;2022-12-18T08:53:38;95901.38;;;11.50;75.42
6393;BME280;3229;42.674;23.282;2022-12-18T08:56:06;95899.84;;;11.48;75.29
6393;BME280;3229;42.674;23.282;2022-12-18T08:58:32;95900.44;;;11.51;75.08
6393;BME280;3229;42.674;23.282;2022-12-18T09:01:00;95897.78;;;11.53;74.96
6393;BME280;3229;42.674;23.282;2022-12-18T09:03:29;95887.28;;;11.45;74.58
6393;BME280;3229;42.674;23.282;2022-12-18T09:05:56;95896.94;;;11.52;74.56
6393;BME280;3229;42.674;23.282;2022-12-18T09:08:23;95892.28;;;11.46;74.58
6393;BME280;3229;42.674;23.282;2022-12-18T09:10:51;95892.66;;;11.53;74.29
6393;BME280;3229;42.674;23.282;2022-12-18T09:13:19;95895.22;;;11.53;74.14
6393;BME280;3229;42.674;23.282;2022-12-18T09:15:47;95890.91;;;11.53;74.01
6393;BME280;3229;42.674;23.282;2022-12-18T09:18:16;95890.91;;;11.53;73.55
6393;BME280;3229;42.674;23.282;2022-12-18T09:20:45;95894.88;;;11.58;73.49
6393;BME280;3229;42.674;23.282;2022-12-18T09:23:12;95889.63;;;11.59;73.33
6393;BME280;3229;42.674;23.282;2022-12-18T09:25:40;95893.72;;;11.62;73.26
6393;BME280;3229;42.674;23.282;2022-12-18T09:28:11;95887.75;;;11.61;73.01
6393;BME280;3229;42.674;23.282;2022-12-18T09:30:38;95896.03;;;11.65;72.86
6393;BME280;3229;42.674;23.282;2022-12-18T09:33:05;95892.56;;;11.66;72.69
6393;BME280;3229;42.674;23.282;2022-12-18T09:35:32;95897.44;;;11.69;72.53
6393;BME280;3229;42.674;23.282;2022-12-18T09:38:03;95900.72;;;11.71;72.15
6393;BME280;3229;42.674;23.282;2022-12-18T09:40:34;95893.63;;;11.74;72.13
6393;BME280;3229;42.674;23.282;2022-12-18T09:43:03;95898.63;;;11.76;71.77
6393;BME280;3229;42.674;23.282;2022-12-18T09:45:38;95884.53;;;11.70;71.78
6393;BME280;3229;42.674;23.282;2022-12-18T09:48:05;95900.63;;;11.84;71.74
6393;BME280;3229;42.674;23.282;2022-12-18T09:50:39;95897.72;;;11.88;71.42
6393;BME280;3229;42.674;23.282;2022-12-18T09:53:15;95897.38;;;11.93;71.39
6393;BME280;3229;42.674;23.282;2022-12-18T09:55:44;95898.66;;;11.98;71.24
6393;BME280;3229;42.674;23.282;2022-12-18T09:58:15;95899.09;;;12.03;70.83
6393;BME280;3229;42.674;23.282;2022-12-18T10:00:43;95895.16;;;12.11;70.54
6393;BME280;3229;42.674;23.282;2022-12-18T10:03:12;95904.13;;;12.16;70.33
6393;BME280;3229;42.674;23.282;2022-12-18T10:05:43;95891.66;;;12.23;70.04
6393;BME280;3229;42.674;23.282;2022-12-18T10:08:19;95890.50;;;12.27;69.73
6393;BME280;3229;42.674;23.282;2022-12-18T10:10:50;95895.84;;;12.35;69.39
6393;BME280;3229;42.674;23.282;2022-12-18T10:13:23;95892.66;;;12.43;69.45
6393;BME280;3229;42.674;23.282;2022-12-18T10:16:00;95896.38;;;12.50;69.05
6393;BME280;3229;42.674;23.282;2022-12-18T10:18:56;95899.53;;;12.53;68.73
6393;BME280;3229;42.674;23.282;2022-12-18T10:21:31;95901.38;;;12.63;68.63
6393;BME280;3229;42.674;23.282;2022-12-18T10:24:13;95901.97;;;12.66;68.58
6393;BME280;3229;42.674;23.282;2022-12-18T10:26:43;95903.59;;;12.67;68.41
6393;BME280;3229;42.674;23.282;2022-12-18T10:29:12;95903.09;;;12.73;68.12
6393;BME280;3229;42.674;23.282;2022-12-18T10:31:39;95896.22;;;12.74;68.03
6393;BME280;3229;42.674;23.282;2022-12-18T10:34:09;95905.31;;;12.78;67.99
6393;BME280;3229;42.674;23.282;2022-12-18T10:36:36;95908.34;;;12.83;67.42
6393;BME280;3229;42.674;23.282;2022-12-18T10:39:21;95904.59;;;12.87;67.44
6393;BME280;3229;42.674;23.282;2022-12-18T10:41:48;95898.50;;;12.88;67.37
6393;BME280;3229;42.674;23.282;2022-12-18T10:44:19;95904.09;;;12.93;66.94
6393;BME280;3229;42.674;23.282;2022-12-18T10:46:49;95896.25;;;12.95;66.80
6393;BME280;3229;42.674;23.282;2022-12-18T10:49:22;95883.25;;;12.87;67.00
6393;BME280;3229;42.674;23.282;2022-12-18T10:51:49;95897.78;;;12.97;66.76
6393;BME280;3229;42.674;23.282;2022-12-18T10:54:21;95896.16;;;12.96;66.78
6393;BME280;3229;42.674;23.282;2022-12-18T10:56:49;95892.41;;;13.00;66.40
6393;BME280;3229;42.674;23.282;2022-12-18T10:59:17;95893.06;;;13.02;66.32
6393;BME280;3229;42.674;23.282;2022-12-18T11:01:50;95890.41;;;13.04;66.22
6393;BME280;3229;42.674;23.282;2022-12-18T11:04:20;95877.81;;;13.01;66.02
6393;BME280;3229;42.674;23.282;2022-12-18T11:07:01;95892.03;;;13.05;65.75
6393;BME280;3229;42.674;23.282;2022-12-18T11:09:31;95899.59;;;13.06;65.88
6393;BME280;3229;42.674;23.282;2022-12-18T11:11:59;95905.69;;;13.05;65.79
6393;BME280;3229;42.674;23.282;2022-12-18T11:14:28;95901.34;;;13.06;65.65
6393;BME280;3229;42.674;23.282;2022-12-18T11:16:56;95900.41;;;13.07;65.64
6393;BME280;3229;42.674;23.282;2022-12-18T11:19:30;95905.44;;;13.09;65.50
6393;BME280;3229;42.674;23.282;2022-12-18T11:21:58;95907.88;;;13.10;65.41
6393;BME280;3229;42.674;23.282;2022-12-18T11:24:30;95905.44;;;13.09;65.25
6393;BME280;3229;42.674;23.282;2022-12-18T11:27:00;95906.94;;;13.11;65.19
6393;BME280;3229;42.674;23.282;2022-12-18T11:29:32;95911.41;;;13.09;65.02
6393;BME280;3229;42.674;23.282;2022-12-18T11:32:22;95870.41;;;12.87;65.12
6393;BME280;3229;42.674;23.282;2022-12-18T11:34:53;95874.22;;;12.92;65.08
6393;BME280;3229;42.674;23.282;2022-12-18T11:37:24;95902.16;;;13.06;65.08
6393;BME280;3229;42.674;23.282;2022-12-18T11:39:56;95894.47;;;13.06;64.84
6393;BME280;3229;42.674;23.282;2022-12-18T11:42:30;95909.06;;;13.06;64.91
6393;BME280;3229;42.674;23.282;2022-12-18T11:45:08;95905.69;;;13.05;64.63
6393;BME280;3229;42.674;23.282;2022-12-18T11:47:47;95913.63;;;13.02;64.67
6393;BME280;3229;42.674;23.282;2022-12-18T11:50:19;95911.28;;;12.99;64.52
6393;BME280;3229;42.674;23.282;2022-12-18T11:52:47;95891.53;;;12.79;64.37
6393;BME280;3229;42.674;23.282;2022-12-18T11:55:23;95908.28;;;12.94;64.31
6393;BME280;3229;42.674;23.282;2022-12-18T11:58:00;95900.84;;;12.91;64.38
6393;BME280;3229;42.674;23.282;2022-12-18T12:00:28;95871.59;;;12.71;64.23
6393;BME280;3229;42.674;23.282;2022-12-18T12:03:18;95894.41;;;12.86;64.16
6393;BME280;3229;42.674;23.282;2022-12-18T12:06:00;95898.88;;;12.84;64.22
6393;BME280;3229;42.674;23.282;2022-12-18T12:08:40;95899.34;;;12.77;64.18
6393;BME280;3229;42.674;23.282;2022-12-18T12:11:19;95896.09;;;12.75;64.26
6393;BME280;3229;42.674;23.282;2022-12-18T12:13:52;95902.19;;;12.74;64.29
6393;BME280;3229;42.674;23.282;2022-12-18T12:16:24;95892.94;;;12.72;64.43
6393;BME280;3229;42.674;23.282;2022-12-18T12:19:03;95897.41;;;12.70;64.44
6393;BME280;3229;42.674;23.282;2022-12-18T12:21:38;95896.94;;;12.65;64.27
6393;BME280;3229;42.674;23.282;2022-12-18T12:24:17;95879.69;;;12.55;64.30
6393;BME280;3229;42.674;23.282;2022-12-18T12:26:55;95896.00;;;12.66;64.39
6393;BME280;3229;42.674;23.282;2022-12-18T12:29:37;95897.78;;;12.65;64.25
6393;BME280;3229;42.674;23.282;2022-12-18T12:32:21;95904.75;;;12.63;64.17
6393;BME280;3229;42.674;23.282;2022-12-18T12:34:58;95890.31;;;12.51;64.26
6393;BME280;3229;42.674;23.282;2022-12-18T12:37:35;95909.56;;;12.57;64.46
6393;BME280;3229;42.674;23.282;2022-12-18T12:40:05;95906.28;;;12.54;64.45
6393;BME280;3229;42.674;23.282;2022-12-18T12:42:38;95908.03;;;12.54;64.26
6393;BME280;3229;42.674;23.282;2022-12-18T12:45:30;95907.34;;;12.52;64.34
6393;BME280;3229;42.674;23.282;2022-12-18T12:48:01;95908.41;;;12.49;64.37
6393;BME280;3229;42.674;23.282;2022-12-18T12:50:30;95910.25;;;12.47;64.36
6393;BME280;3229;42.674;23.282;2022-12-18T12:53:01;95881.97;;;12.26;64.61
6393;BME280;3229;42.674;23.282;2022-12-18T12:55:32;95910.38;;;12.46;64.20
6393;BME280;3229;42.674;23.282;2022-12-18T12:58:05;95881.97;;;12.26;64.40
6393;BME280;3229;42.674;23.282;2022-12-18T13:00:40;95915.88;;;12.41;64.33
6393;BME280;3229;42.674;23.282;2022-12-18T13:03:15;95911.09;;;12.37;64.10
6393;BME280;3229;42.674;23.282;2022-12-18T13:05:50;95921.25;;;12.38;64.45
6393;BME280;3229;42.674;23.282;2022-12-18T13:08:23;95919.63;;;12.37;64.34
6393;BME280;3229;42.674;23.282;2022-12-18T13:10:52;95929.06;;;12.37;64.40
6393;BME280;3229;42.674;23.282;2022-12-18T13:13:50;95927.53;;;12.34;64.39
6393;BME280;3229;42.674;23.282;2022-12-18T13:16:19;95925.22;;;12.31;64.26
6393;BME280;3229;42.674;23.282;2022-12-18T13:18:50;95937.25;;;12.30;64.04
6393;BME280;3229;42.674;23.282;2022-12-18T13:21:21;95942.59;;;12.27;64.48
6393;BME280;3229;42.674;23.282;2022-12-18T13:23:50;95937.09;;;12.21;64.61